sensor_id;sensor_type;location;lat;lon;timestamp;temperature;humidity
9311;DHT22;4694;52.464;13.480;2024-01-15T00:00:10;2.90;99.90
9311;DHT22;4694;52.464;13.480;2024-01-15T00:02:37;2.80;99.90
9311;DHT22;4694;52.464;13.480;2024-01-15T00:05:06;2.90;99.90
9311;DHT22;4694;52.464;13.480;2024-01-15T00:07:33;2.80;99.90
9311;DHT22;4694;52.464;13.480;2024-01-15T00:09:59;2.80;99.90
9311;DHT22;4694;52.464;13.480;2024-01-15T00:12:27;2.80;99.90
9311;DHT22;4694;52.464;13.480;2024-01-15T00:14:53;2.70;99.90
9311;DHT22;4694;52.464;13.480;2024-01-15T00:17:20;2.60;99.90
9311;DHT22;4694;52.464;13.480;2024-01-15T00:19:47;2.60;99.90
9311;DHT22;4694;52.464;13.480;2024-01-15T00:22:15;2.50;99.90
9311;DHT22;4694;52.464;13.480;2024-01-15T00:24:41;2.50;99.90
9311;DHT22;4694;52.464;13.480;2024-01-15T00:27:08;2.50;99.90
9311;DHT22;4694;52.464;13.480;2024-01-15T00:29:35;2.50;99.90
9311;DHT22;4694;52.464;13.480;2024-01-15T00:32:01;2.40;99.90
9311;DHT22;4694;52.464;13.480;2024-01-15T00:34:28;2.40;99.90
9311;DHT22;4694;52.464;13.480;2024-01-15T00:36:54;2.50;99.90
9311;DHT22;4694;52.464;13.480;2024-01-15T00:39:22;2.50;99.90
9311;DHT22;4694;52.464;13.480;2024-01-15T00:41:49;2.50;99.90
9311;DHT22;4694;52.464;13.480;2024-01-15T00:44:16;2.50;99.90
9311;DHT22;4694;52.464;13.480;2024-01-15T00:46:43;2.50;99.90
9311;DHT22;4694;52.464;13.480;2024-01-15T00:49:11;2.60;99.90
9311;DHT22;4694;52.464;13.480;2024-01-15T00:51:38;2.50;99.90
9311;DHT22;4694;52.464;13.480;2024-01-15T00:54:05;2.50;99.90
9311;DHT22;4694;52.464;13.480;2024-01-15T00:56:33;2.50;99.90
9311;DHT22;4694;52.464;13.480;2024-01-15T00:59:01;2.60;99.90
9311;DHT22;4694;52.464;13.480;2024-01-15T01:01:28;2.60;99.90
9311;DHT22;4694;52.464;13.480;2024-01-15T01:03:55;2.60;99.90
9311;DHT22;4694;52.464;13.480;2024-01-15T01:06:22;2.60;99.90
9311;DHT22;4694;52.464;13.480;2024-01-15T01:08:48;2.60;99.90
9311;DHT22;4694;52.464;13.480;2024-01-15T01:11:15;2.60;99.90
9311;DHT22;4694;52.464;13.480;2024-01-15T01:13:43;2.60;99.90
9311;DHT22;4694;52.464;13.480;2024-01-15T01:16:10;2.60;99.90
9311;DHT22;4694;52.464;13.480;2024-01-15T01:18:36;2.60;99.90
9311;DHT22;4694;52.464;13.480;2024-01-15T01:21:03;2.60;99.90
9311;DHT22;4694;52.464;13.480;2024-01-15T01:23:30;2.60;99.90
9311;DHT22;4694;52.464;13.480;2024-01-15T01:25:56;2.60;99.90
9311;DHT22;4694;52.464;13.480;2024-01-15T01:28:23;2.50;99.90
9311;DHT22;4694;52.464;13.480;2024-01-15T01:30:52;2.50;99.90
9311;DHT22;4694;52.464;13.480;2024-01-15T01:33:18;2.50;99.90
9311;DHT22;4694;52.464;13.480;2024-01-15T01:35:45;2.50;99.90
9311;DHT22;4694;52.464;13.480;2024-01-15T01:38:13;2.50;99.90
9311;DHT22;4694;52.464;13.480;2024-01-15T01:40:40;2.40;99.90
9311;DHT22;4694;52.464;13.480;2024-01-15T01:43:09;2.40;99.90
9311;DHT22;4694;52.464;13.480;2024-01-15T01:45:36;2.40;99.90
9311;DHT22;4694;52.464;13.480;2024-01-15T01:48:04;2.40;99.90
9311;DHT22;4694;52.464;13.480;2024-01-15T01:50:31;2.40;99.90
9311;DHT22;4694;52.464;13.480;2024-01-15T01:52:58;2.30;99.90
9311;DHT22;4694;52.464;13.480;2024-01-15T01:55:27;2.30;99.90
9311;DHT22;4694;52.464;13.480;2024-01-15T01:57:56;2.20;99.90
9311;DHT22;4694;52.464;13.480;2024-01-15T02:00:22;2.20;99.90
9311;DHT22;4694;52.464;13.480;2024-01-15T02:02:49;2.20;99.90
9311;DHT22;4694;52.464;13.480;2024-01-15T02:05:19;2.20;99.90
9311;DHT22;4694;52.464;13.480;2024-01-15T02:07:47;2.20;99.90
9311;DHT22;4694;52.464;13.480;2024-01-15T02:10:14;2.20;99.90
9311;DHT22;4694;52.464;13.480;2024-01-15T02:12:42;2.20;99.90
9311;DHT22;4694;52.464;13.480;2024-01-15T02:15:09;2.20;99.90
9311;DHT22;4694;52.464;13.480;2024-01-15T02:17:56;2.20;99.90
9311;DHT22;4694;52.464;13.480;2024-01-15T02:20:24;2.10;99.90
9311;DHT22;4694;52.464;13.480;2024-01-15T02:22:51;2.10;99.90
9311;DHT22;4694;52.464;13.480;2024-01-15T02:25:19;2.10;99.90
9311;DHT22;4694;52.464;13.480;2024-01-15T02:27:47;2.10;99.90
9311;DHT22;4694;52.464;13.480;2024-01-15T02:30:14;2.10;99.90
9311;DHT22;4694;52.464;13.480;2024-01-15T02:32:42;2.10;99.90
9311;DHT22;4694;52.464;13.480;2024-01-15T02:35:08;2.10;99.90
9311;DHT22;4694;52.464;13.480;2024-01-15T02:37:36;2.10;99.90
9311;DHT22;4694;52.464;13.480;2024-01-15T02:40:03;2.10;99.90
9311;DHT22;4694;52.464;13.480;2024-01-15T02:42:31;2.20;99.90
9311;DHT22;4694;52.464;13.480;2024-01-15T02:44:57;2.20;99.90
9311;DHT22;4694;52.464;13.480;2024-01-15T02:47:24;2.10;99.90
9311;DHT22;4694;52.464;13.480;2024-01-15T02:49:51;2.10;99.90
9311;DHT22;4694;52.464;13.480;2024-01-15T02:52:18;2.10;99.90
9311;DHT22;4694;52.464;13.480;2024-01-15T02:54:44;2.10;99.90
9311;DHT22;4694;52.464;13.480;2024-01-15T02:57:11;2.20;99.90
9311;DHT22;4694;52.464;13.480;2024-01-15T02:59:39;2.20;99.90
9311;DHT22;4694;52.464;13.480;2024-01-15T03:02:05;2.20;99.90
9311;DHT22;4694;52.464;13.480;2024-01-15T03:04:32;2.20;99.90
9311;DHT22;4694;52.464;13.480;2024-01-15T03:06:59;2.20;99.90
9311;DHT22;4694;52.464;13.480;2024-01-15T03:09:25;2.30;99.90
9311;DHT22;4694;52.464;13.480;2024-01-15T03:11:52;2.20;99.90
9311;DHT22;4694;52.464;13.480;2024-01-15T03:14:18;2.30;99.90
9311;DHT22;4694;52.464;13.480;2024-01-15T03:16:47;2.20;99.90
9311;DHT22;4694;52.464;13.480;2024-01-15T03:19:13;2.20;99.90
9311;DHT22;4694;52.464;13.480;2024-01-15T03:21:40;2.20;99.90
9311;DHT22;4694;52.464;13.480;2024-01-15T03:24:06;2.30;99.90
9311;DHT22;4694;52.464;13.480;2024-01-15T03:26:33;2.30;99.90
9311;DHT22;4694;52.464;13.480;2024-01-15T03:29:00;2.30;99.90
9311;DHT22;4694;52.464;13.480;2024-01-15T03:31:26;2.30;99.90
9311;DHT22;4694;52.464;13.480;2024-01-15T03:33:54;2.30;99.90
9311;DHT22;4694;52.464;13.480;2024-01-15T03:36:21;2.30;99.90
9311;DHT22;4694;52.464;13.480;2024-01-15T03:38:48;2.30;99.90
9311;DHT22;4694;52.464;13.480;2024-01-15T03:41:15;2.30;99.90
9311;DHT22;4694;52.464;13.480;2024-01-15T03:43:41;2.40;99.90
9311;DHT22;4694;52.464;13.480;2024-01-15T03:46:08;2.40;99.90
9311;DHT22;4694;52.464;13.480;2024-01-15T03:48:35;2.40;99.90
9311;DHT22;4694;52.464;13.480;2024-01-15T03:51:04;2.40;99.90
9311;DHT22;4694;52.464;13.480;2024-01-15T03:53:30;2.40;99.90
9311;DHT22;4694;52.464;13.480;2024-01-15T03:55:57;2.40;99.90
9311;DHT22;4694;52.464;13.480;2024-01-15T03:58:24;2.40;99.90
9311;DHT22;4694;52.464;13.480;2024-01-15T04:00:50;2.40;99.90
9311;DHT22;4694;52.464;13.480;2024-01-15T04:03:17;2.40;99.90
9311;DHT22;4694;52.464;13.480;2024-01-15T04:05:44;2.40;99.90
9311;DHT22;4694;52.464;13.480;2024-01-15T04:08:12;2.40;99.90
9311;DHT22;4694;52.464;13.480;2024-01-15T04:10:38;2.50;99.90
9311;DHT22;4694;52.464;13.480;2024-01-15T04:13:05;2.50;99.90
9311;DHT22;4694;52.464;13.480;2024-01-15T04:15:32;2.50;99.90
9311;DHT22;4694;52.464;13.480;2024-01-15T04:17:58;2.60;99.90
9311;DHT22;4694;52.464;13.480;2024-01-15T04:20:26;2.50;99.90
9311;DHT22;4694;52.464;13.480;2024-01-15T04:22:53;2.50;99.90
9311;DHT22;4694;52.464;13.480;2024-01-15T04:25:21;2.50;99.90
9311;DHT22;4694;52.464;13.480;2024-01-15T04:27:47;2.50;99.90
9311;DHT22;4694;52.464;13.480;2024-01-15T04:30:14;2.40;99.90
9311;DHT22;4694;52.464;13.480;2024-01-15T04:32:40;2.40;99.90
9311;DHT22;4694;52.464;13.480;2024-01-15T04:35:07;2.40;99.90
9311;DHT22;4694;52.464;13.480;2024-01-15T04:37:34;2.50;99.90
9311;DHT22;4694;52.464;13.480;2024-01-15T04:40:01;2.50;99.90
9311;DHT22;4694;52.464;13.480;2024-01-15T04:42:30;2.50;99.90
9311;DHT22;4694;52.464;13.480;2024-01-15T04:44:57;2.60;99.90
9311;DHT22;4694;52.464;13.480;2024-01-15T04:47:24;2.60;99.90
9311;DHT22;4694;52.464;13.480;2024-01-15T04:49:51;2.60;99.90
9311;DHT22;4694;52.464;13.480;2024-01-15T04:52:17;2.60;99.90
9311;DHT22;4694;52.464;13.480;2024-01-15T04:54:44;2.60;99.90
9311;DHT22;4694;52.464;13.480;2024-01-15T04:57:10;2.50;99.90
9311;DHT22;4694;52.464;13.480;2024-01-15T04:59:39;2.50;99.90
9311;DHT22;4694;52.464;13.480;2024-01-15T05:02:06;2.50;99.90
9311;DHT22;4694;52.464;13.480;2024-01-15T05:04:32;2.50;99.90
9311;DHT22;4694;52.464;13.480;2024-01-15T05:06:59;2.40;99.90
9311;DHT22;4694;52.464;13.480;2024-01-15T05:09:25;2.40;99.90
9311;DHT22;4694;52.464;13.480;2024-01-15T05:11:52;2.40;99.90
9311;DHT22;4694;52.464;13.480;2024-01-15T05:14:19;2.50;99.90
9311;DHT22;4694;52.464;13.480;2024-01-15T05:16:48;2.60;99.90
9311;DHT22;4694;52.464;13.480;2024-01-15T05:19:15;2.60;99.90
9311;DHT22;4694;52.464;13.480;2024-01-15T05:21:42;2.60;99.90
9311;DHT22;4694;52.464;13.480;2024-01-15T05:24:08;2.70;99.90
9311;DHT22;4694;52.464;13.480;2024-01-15T05:26:35;2.60;99.90
9311;DHT22;4694;52.464;13.480;2024-01-15T05:29:01;2.60;99.90
9311;DHT22;4694;52.464;13.480;2024-01-15T05:31:29;2.60;99.90
9311;DHT22;4694;52.464;13.480;2024-01-15T05:33:57;2.60;99.90
9311;DHT22;4694;52.464;13.480;2024-01-15T05:36:23;2.60;99.90
9311;DHT22;4694;52.464;13.480;2024-01-15T05:38:50;2.60;99.90
9311;DHT22;4694;52.464;13.480;2024-01-15T05:41:17;2.60;99.90
9311;DHT22;4694;52.464;13.480;2024-01-15T05:43:44;2.60;99.90
9311;DHT22;4694;52.464;13.480;2024-01-15T05:46:11;2.60;99.90
9311;DHT22;4694;52.464;13.480;2024-01-15T05:48:37;2.60;99.90
9311;DHT22;4694;52.464;13.480;2024-01-15T05:51:05;2.60;99.90
9311;DHT22;4694;52.464;13.480;2024-01-15T05:53:32;2.70;99.90
9311;DHT22;4694;52.464;13.480;2024-01-15T05:55:59;2.70;99.90
9311;DHT22;4694;52.464;13.480;2024-01-15T05:58:26;2.70;99.90
9311;DHT22;4694;52.464;13.480;2024-01-15T06:00:53;2.70;99.90
9311;DHT22;4694;52.464;13.480;2024-01-15T06:03:19;2.70;99.90
9311;DHT22;4694;52.464;13.480;2024-01-15T06:05:46;2.70;99.90
9311;DHT22;4694;52.464;13.480;2024-01-15T06:08:14;2.60;99.90
9311;DHT22;4694;52.464;13.480;2024-01-15T06:10:41;2.60;99.90
9311;DHT22;4694;52.464;13.480;2024-01-15T06:13:08;2.50;99.90
9311;DHT22;4694;52.464;13.480;2024-01-15T06:15:34;2.50;99.90
9311;DHT22;4694;52.464;13.480;2024-01-15T06:18:01;2.60;99.90
9311;DHT22;4694;52.464;13.480;2024-01-15T06:20:27;2.50;99.90
9311;DHT22;4694;52.464;13.480;2024-01-15T06:22:54;2.50;99.90
9311;DHT22;4694;52.464;13.480;2024-01-15T06:25:22;2.50;99.90
9311;DHT22;4694;52.464;13.480;2024-01-15T06:27:49;2.50;99.90
9311;DHT22;4694;52.464;13.480;2024-01-15T06:30:15;2.50;99.90
9311;DHT22;4694;52.464;13.480;2024-01-15T06:32:42;2.50;99.90
9311;DHT22;4694;52.464;13.480;2024-01-15T06:35:09;2.60;99.90
9311;DHT22;4694;52.464;13.480;2024-01-15T06:37:37;2.60;99.90
9311;DHT22;4694;52.464;13.480;2024-01-15T06:40:04;2.50;99.90
9311;DHT22;4694;52.464;13.480;2024-01-15T06:42:32;2.50;99.90
9311;DHT22;4694;52.464;13.480;2024-01-15T06:44:59;2.50;99.90
9311;DHT22;4694;52.464;13.480;2024-01-15T06:47:26;2.60;99.90
9311;DHT22;4694;52.464;13.480;2024-01-15T06:49:53;2.50;99.90
9311;DHT22;4694;52.464;13.480;2024-01-15T06:52:20;2.60;99.90
9311;DHT22;4694;52.464;13.480;2024-01-15T06:54:47;2.60;99.90
9311;DHT22;4694;52.464;13.480;2024-01-15T06:57:13;2.60;99.90
9311;DHT22;4694;52.464;13.480;2024-01-15T06:59:41;2.60;99.90
9311;DHT22;4694;52.464;13.480;2024-01-15T07:02:08;2.60;99.90
9311;DHT22;4694;52.464;13.480;2024-01-15T07:04:35;2.70;99.90
9311;DHT22;4694;52.464;13.480;2024-01-15T07:07:02;3.60;99.90
9311;DHT22;4694;52.464;13.480;2024-01-15T07:09:28;4.70;99.90
9311;DHT22;4694;52.464;13.480;2024-01-15T07:11:55;4.70;99.90
9311;DHT22;4694;52.464;13.480;2024-01-15T07:14:23;4.40;99.90
9311;DHT22;4694;52.464;13.480;2024-01-15T07:16:51;4.00;99.90
9311;DHT22;4694;52.464;13.480;2024-01-15T07:19:18;3.70;99.90
9311;DHT22;4694;52.464;13.480;2024-01-15T07:21:44;3.50;99.90
9311;DHT22;4694;52.464;13.480;2024-01-15T07:24:13;3.40;99.90
9311;DHT22;4694;52.464;13.480;2024-01-15T07:26:39;3.30;99.90
9311;DHT22;4694;52.464;13.480;2024-01-15T07:29:06;3.20;99.90
9311;DHT22;4694;52.464;13.480;2024-01-15T07:31:34;3.20;99.90
9311;DHT22;4694;52.464;13.480;2024-01-15T07:34:02;3.10;99.90
9311;DHT22;4694;52.464;13.480;2024-01-15T07:36:29;3.10;99.90
9311;DHT22;4694;52.464;13.480;2024-01-15T07:38:56;3.10;99.90
9311;DHT22;4694;52.464;13.480;2024-01-15T07:41:23;3.10;99.90
9311;DHT22;4694;52.464;13.480;2024-01-15T07:43:49;3.10;99.90
9311;DHT22;4694;52.464;13.480;2024-01-15T07:46:16;3.10;99.90
9311;DHT22;4694;52.464;13.480;2024-01-15T07:48:43;3.10;99.90
9311;DHT22;4694;52.464;13.480;2024-01-15T07:51:11;3.10;99.90
9311;DHT22;4694;52.464;13.480;2024-01-15T07:53:37;3.10;99.90
9311;DHT22;4694;52.464;13.480;2024-01-15T07:56:05;3.10;99.90
9311;DHT22;4694;52.464;13.480;2024-01-15T07:58:32;3.10;99.90
9311;DHT22;4694;52.464;13.480;2024-01-15T08:00:58;3.20;99.90
9311;DHT22;4694;52.464;13.480;2024-01-15T08:03:25;3.20;99.90
9311;DHT22;4694;52.464;13.480;2024-01-15T08:05:52;3.20;99.90
9311;DHT22;4694;52.464;13.480;2024-01-15T08:08:21;3.20;99.90
9311;DHT22;4694;52.464;13.480;2024-01-15T08:10:48;3.20;99.90
9311;DHT22;4694;52.464;13.480;2024-01-15T08:13:15;3.30;99.90
9311;DHT22;4694;52.464;13.480;2024-01-15T08:15:42;3.30;99.90
9311;DHT22;4694;52.464;13.480;2024-01-15T08:18:08;3.30;99.90
9311;DHT22;4694;52.464;13.480;2024-01-15T08:20:35;3.20;99.90
9311;DHT22;4694;52.464;13.480;2024-01-15T08:23:04;3.20;99.90
9311;DHT22;4694;52.464;13.480;2024-01-15T08:25:32;3.30;99.90
9311;DHT22;4694;52.464;13.480;2024-01-15T08:27:59;3.20;99.90
9311;DHT22;4694;52.464;13.480;2024-01-15T08:30:25;3.20;99.90
9311;DHT22;4694;52.464;13.480;2024-01-15T08:32:53;3.20;99.90
9311;DHT22;4694;52.464;13.480;2024-01-15T08:35:19;3.20;99.90
9311;DHT22;4694;52.464;13.480;2024-01-15T08:37:48;3.30;99.90
9311;DHT22;4694;52.464;13.480;2024-01-15T08:40:15;3.30;99.90
9311;DHT22;4694;52.464;13.480;2024-01-15T08:42:43;3.30;99.90
9311;DHT22;4694;52.464;13.480;2024-01-15T08:45:11;3.30;99.90
9311;DHT22;4694;52.464;13.480;2024-01-15T08:47:38;3.30;99.90
9311;DHT22;4694;52.464;13.480;2024-01-15T08:50:05;3.30;99.90
9311;DHT22;4694;52.464;13.480;2024-01-15T08:52:35;3.30;99.90
9311;DHT22;4694;52.464;13.480;2024-01-15T08:55:01;3.30;99.90
9311;DHT22;4694;52.464;13.480;2024-01-15T08:57:29;3.30;99.90
9311;DHT22;4694;52.464;13.480;2024-01-15T08:59:57;3.30;99.90
9311;DHT22;4694;52.464;13.480;2024-01-15T09:02:25;3.30;99.90
9311;DHT22;4694;52.464;13.480;2024-01-15T09:04:51;3.30;99.90
9311;DHT22;4694;52.464;13.480;2024-01-15T09:07:18;3.30;99.90
9311;DHT22;4694;52.464;13.480;2024-01-15T09:09:44;3.40;99.90
9311;DHT22;4694;52.464;13.480;2024-01-15T09:12:11;3.30;99.90
9311;DHT22;4694;52.464;13.480;2024-01-15T09:14:40;3.20;99.90
9311;DHT22;4694;52.464;13.480;2024-01-15T09:17:09;3.30;99.90
9311;DHT22;4694;52.464;13.480;2024-01-15T09:19:35;3.30;99.90
9311;DHT22;4694;52.464;13.480;2024-01-15T09:22:02;3.30;99.90
9311;DHT22;4694;52.464;13.480;2024-01-15T09:24:29;3.30;99.90
9311;DHT22;4694;52.464;13.480;2024-01-15T09:26:57;3.40;99.90
9311;DHT22;4694;52.464;13.480;2024-01-15T09:29:25;3.40;99.90
9311;DHT22;4694;52.464;13.480;2024-01-15T09:31:52;3.40;99.90
9311;DHT22;4694;52.464;13.480;2024-01-15T09:34:21;3.40;99.90
9311;DHT22;4694;52.464;13.480;2024-01-15T09:36:48;3.50;99.90
9311;DHT22;4694;52.464;13.480;2024-01-15T09:39:15;3.40;99.90
9311;DHT22;4694;52.464;13.480;2024-01-15T09:41:43;3.50;99.90
9311;DHT22;4694;52.464;13.480;2024-01-15T09:44:10;3.50;99.90
9311;DHT22;4694;52.464;13.480;2024-01-15T09:46:38;3.50;99.90
9311;DHT22;4694;52.464;13.480;2024-01-15T09:49:05;3.50;99.90
9311;DHT22;4694;52.464;13.480;2024-01-15T09:51:34;3.50;99.90
9311;DHT22;4694;52.464;13.480;2024-01-15T09:54:02;3.40;99.90
9311;DHT22;4694;52.464;13.480;2024-01-15T09:56:30;3.40;99.90
9311;DHT22;4694;52.464;13.480;2024-01-15T09:58:57;3.40;99.90
9311;DHT22;4694;52.464;13.480;2024-01-15T10:01:24;3.50;99.90
9311;DHT22;4694;52.464;13.480;2024-01-15T10:03:51;3.60;99.90
9311;DHT22;4694;52.464;13.480;2024-01-15T10:06:19;3.70;99.90
9311;DHT22;4694;52.464;13.480;2024-01-15T10:08:50;3.80;99.90
9311;DHT22;4694;52.464;13.480;2024-01-15T10:11:17;3.80;99.90
9311;DHT22;4694;52.464;13.480;2024-01-15T10:13:44;3.80;99.90
9311;DHT22;4694;52.464;13.480;2024-01-15T10:16:11;3.80;99.90
9311;DHT22;4694;52.464;13.480;2024-01-15T10:18:38;3.80;99.90
9311;DHT22;4694;52.464;13.480;2024-01-15T10:21:06;3.80;99.90
9311;DHT22;4694;52.464;13.480;2024-01-15T10:23:33;3.90;99.90
9311;DHT22;4694;52.464;13.480;2024-01-15T10:26:03;3.90;99.90
9311;DHT22;4694;52.464;13.480;2024-01-15T10:28:30;4.00;99.90
9311;DHT22;4694;52.464;13.480;2024-01-15T10:30:58;4.00;99.90
9311;DHT22;4694;52.464;13.480;2024-01-15T10:33:26;3.90;99.90
9311;DHT22;4694;52.464;13.480;2024-01-15T10:35:54;4.00;99.90
9311;DHT22;4694;52.464;13.480;2024-01-15T10:38:22;4.10;99.90
9311;DHT22;4694;52.464;13.480;2024-01-15T10:40:51;4.10;99.90
9311;DHT22;4694;52.464;13.480;2024-01-15T10:43:20;4.10;99.90
9311;DHT22;4694;52.464;13.480;2024-01-15T10:45:48;4.10;99.90
9311;DHT22;4694;52.464;13.480;2024-01-15T10:48:16;4.10;99.90
9311;DHT22;4694;52.464;13.480;2024-01-15T10:50:44;4.10;99.90
9311;DHT22;4694;52.464;13.480;2024-01-15T10:53:14;4.00;99.90
9311;DHT22;4694;52.464;13.480;2024-01-15T10:55:43;4.00;99.90
9311;DHT22;4694;52.464;13.480;2024-01-15T10:58:10;3.90;99.90
9311;DHT22;4694;52.464;13.480;2024-01-15T11:00:38;4.00;99.90
9311;DHT22;4694;52.464;13.480;2024-01-15T11:03:06;4.00;99.90
9311;DHT22;4694;52.464;13.480;2024-01-15T11:05:33;4.10;99.90
9311;DHT22;4694;52.464;13.480;2024-01-15T11:08:01;4.10;99.90
9311;DHT22;4694;52.464;13.480;2024-01-15T11:10:42;4.10;99.90
9311;DHT22;4694;52.464;13.480;2024-01-15T11:13:14;4.10;99.90
9311;DHT22;4694;52.464;13.480;2024-01-15T11:16:00;4.20;99.90
9311;DHT22;4694;52.464;13.480;2024-01-15T11:18:28;4.30;99.90
9311;DHT22;4694;52.464;13.480;2024-01-15T11:21:20;4.40;99.90
9311;DHT22;4694;52.464;13.480;2024-01-15T11:23:53;4.40;99.90
9311;DHT22;4694;52.464;13.480;2024-01-15T11:26:34;4.30;99.90
9311;DHT22;4694;52.464;13.480;2024-01-15T11:29:03;4.30;99.90
9311;DHT22;4694;52.464;13.480;2024-01-15T11:32:02;4.20;99.90
9311;DHT22;4694;52.464;13.480;2024-01-15T11:34:58;4.20;99.90
9311;DHT22;4694;52.464;13.480;2024-01-15T11:37:28;4.20;99.90
9311;DHT22;4694;52.464;13.480;2024-01-15T11:39:55;4.10;99.90
9311;DHT22;4694;52.464;13.480;2024-01-15T11:42:23;4.10;99.90
9311;DHT22;4694;52.464;13.480;2024-01-15T11:44:50;4.10;99.90
9311;DHT22;4694;52.464;13.480;2024-01-15T11:50:09;4.10;99.90
9311;DHT22;4694;52.464;13.480;2024-01-15T11:52:39;4.00;99.90
9311;DHT22;4694;52.464;13.480;2024-01-15T11:55:16;3.90;99.90
9311;DHT22;4694;52.464;13.480;2024-01-15T11:57:46;3.80;99.90
9311;DHT22;4694;52.464;13.480;2024-01-15T12:00:14;3.60;99.90
9311;DHT22;4694;52.464;13.480;2024-01-15T12:02:45;3.50;99.90
9311;DHT22;4694;52.464;13.480;2024-01-15T12:05:14;3.40;99.90
9311;DHT22;4694;52.464;13.480;2024-01-15T12:07:41;3.30;99.90
9311;DHT22;4694;52.464;13.480;2024-01-15T12:10:13;3.30;99.90
9311;DHT22;4694;52.464;13.480;2024-01-15T12:12:53;3.30;99.90
9311;DHT22;4694;52.464;13.480;2024-01-15T12:15:21;3.30;99.90
9311;DHT22;4694;52.464;13.480;2024-01-15T12:17:49;3.30;99.90
9311;DHT22;4694;52.464;13.480;2024-01-15T12:20:17;3.30;99.90
9311;DHT22;4694;52.464;13.480;2024-01-15T12:22:45;3.30;99.90
9311;DHT22;4694;52.464;13.480;2024-01-15T12:25:12;3.30;99.90
9311;DHT22;4694;52.464;13.480;2024-01-15T12:27:39;3.30;99.90
9311;DHT22;4694;52.464;13.480;2024-01-15T12:30:07;3.40;99.90
9311;DHT22;4694;52.464;13.480;2024-01-15T12:32:34;3.30;99.90
9311;DHT22;4694;52.464;13.480;2024-01-15T12:35:03;3.40;99.90
9311;DHT22;4694;52.464;13.480;2024-01-15T12:37:31;3.30;99.90
9311;DHT22;4694;52.464;13.480;2024-01-15T12:39:59;3.30;99.90
9311;DHT22;4694;52.464;13.480;2024-01-15T12:42:27;3.30;99.90
9311;DHT22;4694;52.464;13.480;2024-01-15T12:44:56;3.40;99.90
9311;DHT22;4694;52.464;13.480;2024-01-15T12:47:22;3.30;99.90
9311;DHT22;4694;52.464;13.480;2024-01-15T12:49:51;3.40;99.90
9311;DHT22;4694;52.464;13.480;2024-01-15T12:52:20;3.30;99.90
9311;DHT22;4694;52.464;13.480;2024-01-15T12:54:48;3.40;99.90
9311;DHT22;4694;52.464;13.480;2024-01-15T12:57:14;3.30;99.90
9311;DHT22;4694;52.464;13.480;2024-01-15T12:59:42;3.30;99.90
9311;DHT22;4694;52.464;13.480;2024-01-15T13:02:09;3.30;99.90
9311;DHT22;4694;52.464;13.480;2024-01-15T13:04:35;3.20;99.90
9311;DHT22;4694;52.464;13.480;2024-01-15T13:07:02;3.20;99.90
9311;DHT22;4694;52.464;13.480;2024-01-15T13:09:30;3.20;99.90
9311;DHT22;4694;52.464;13.480;2024-01-15T13:11:57;3.20;99.90
9311;DHT22;4694;52.464;13.480;2024-01-15T13:14:24;3.20;99.90
9311;DHT22;4694;52.464;13.480;2024-01-15T13:16:51;3.20;99.90
9311;DHT22;4694;52.464;13.480;2024-01-15T13:19:19;3.30;99.90
9311;DHT22;4694;52.464;13.480;2024-01-15T13:21:47;3.30;99.90
9311;DHT22;4694;52.464;13.480;2024-01-15T13:24:15;3.30;99.90
9311;DHT22;4694;52.464;13.480;2024-01-15T13:26:43;3.30;99.90
9311;DHT22;4694;52.464;13.480;2024-01-15T13:29:10;3.30;99.90
9311;DHT22;4694;52.464;13.480;2024-01-15T13:31:37;3.30;99.90
9311;DHT22;4694;52.464;13.480;2024-01-15T13:34:04;3.30;99.90
9311;DHT22;4694;52.464;13.480;2024-01-15T13:36:32;3.30;99.90
9311;DHT22;4694;52.464;13.480;2024-01-15T13:38:59;3.30;99.90
9311;DHT22;4694;52.464;13.480;2024-01-15T13:41:25;3.30;99.90
9311;DHT22;4694;52.464;13.480;2024-01-15T13:43:54;3.30;99.90
9311;DHT22;4694;52.464;13.480;2024-01-15T13:46:24;3.30;99.90
9311;DHT22;4694;52.464;13.480;2024-01-15T13:48:51;3.30;99.90
9311;DHT22;4694;52.464;13.480;2024-01-15T13:51:18;3.20;99.90
9311;DHT22;4694;52.464;13.480;2024-01-15T13:53:45;3.20;99.90
9311;DHT22;4694;52.464;13.480;2024-01-15T13:56:11;3.10;99.90
9311;DHT22;4694;52.464;13.480;2024-01-15T13:58:38;3.10;99.90
9311;DHT22;4694;52.464;13.480;2024-01-15T14:01:06;3.10;99.90
9311;DHT22;4694;52.464;13.480;2024-01-15T14:03:35;3.10;99.90
9311;DHT22;4694;52.464;13.480;2024-01-15T14:06:01;3.20;99.90
9311;DHT22;4694;52.464;13.480;2024-01-15T14:08:29;3.00;99.90
9311;DHT22;4694;52.464;13.480;2024-01-15T14:10:55;3.10;99.90
9311;DHT22;4694;52.464;13.480;2024-01-15T14:13:23;3.10;99.90
9311;DHT22;4694;52.464;13.480;2024-01-15T14:15:50;3.10;99.90
9311;DHT22;4694;52.464;13.480;2024-01-15T14:18:18;3.10;99.90
9311;DHT22;4694;52.464;13.480;2024-01-15T14:20:44;3.10;99.90
9311;DHT22;4694;52.464;13.480;2024-01-15T14:23:12;3.10;99.90
9311;DHT22;4694;52.464;13.480;2024-01-15T14:25:39;3.10;99.90
9311;DHT22;4694;52.464;13.480;2024-01-15T14:28:06;3.10;99.90
9311;DHT22;4694;52.464;13.480;2024-01-15T14:30:33;3.10;99.90
9311;DHT22;4694;52.464;13.480;2024-01-15T14:32:59;3.10;99.90
9311;DHT22;4694;52.464;13.480;2024-01-15T14:35:27;3.10;99.90
9311;DHT22;4694;52.464;13.480;2024-01-15T14:37:54;3.10;99.90
9311;DHT22;4694;52.464;13.480;2024-01-15T14:40:20;3.10;99.90
9311;DHT22;4694;52.464;13.480;2024-01-15T14:42:47;3.10;99.90
9311;DHT22;4694;52.464;13.480;2024-01-15T14:45:14;3.10;99.90
9311;DHT22;4694;52.464;13.480;2024-01-15T14:47:41;3.10;99.90
9311;DHT22;4694;52.464;13.480;2024-01-15T14:50:09;3.10;99.90
9311;DHT22;4694;52.464;13.480;2024-01-15T14:52:39;3.10;99.90
9311;DHT22;4694;52.464;13.480;2024-01-15T14:55:07;3.00;99.90
9311;DHT22;4694;52.464;13.480;2024-01-15T14:57:35;3.00;99.90
9311;DHT22;4694;52.464;13.480;2024-01-15T15:00:02;3.00;99.90
9311;DHT22;4694;52.464;13.480;2024-01-15T15:02:32;3.00;99.90
9311;DHT22;4694;52.464;13.480;2024-01-15T15:05:00;3.00;99.90
9311;DHT22;4694;52.464;13.480;2024-01-15T15:07:26;3.00;99.90
9311;DHT22;4694;52.464;13.480;2024-01-15T15:09:54;3.00;99.90
9311;DHT22;4694;52.464;13.480;2024-01-15T15:12:21;3.10;99.90
9311;DHT22;4694;52.464;13.480;2024-01-15T15:14:48;3.10;99.90
9311;DHT22;4694;52.464;13.480;2024-01-15T15:17:14;3.10;99.90
9311;DHT22;4694;52.464;13.480;2024-01-15T15:19:41;3.10;99.90
9311;DHT22;4694;52.464;13.480;2024-01-15T15:22:08;3.10;99.90
9311;DHT22;4694;52.464;13.480;2024-01-15T15:24:36;3.10;99.90
9311;DHT22;4694;52.464;13.480;2024-01-15T15:27:04;3.00;99.90
9311;DHT22;4694;52.464;13.480;2024-01-15T15:29:32;3.10;99.90
9311;DHT22;4694;52.464;13.480;2024-01-15T15:32:00;3.10;99.90
9311;DHT22;4694;52.464;13.480;2024-01-15T15:34:27;3.00;99.90
9311;DHT22;4694;52.464;13.480;2024-01-15T15:36:54;2.90;99.90
9311;DHT22;4694;52.464;13.480;2024-01-15T15:39:20;3.00;99.90
9311;DHT22;4694;52.464;13.480;2024-01-15T15:41:47;2.90;99.90
9311;DHT22;4694;52.464;13.480;2024-01-15T15:44:15;2.90;99.90
9311;DHT22;4694;52.464;13.480;2024-01-15T15:46:43;2.90;99.90
9311;DHT22;4694;52.464;13.480;2024-01-15T15:49:10;2.90;99.90
9311;DHT22;4694;52.464;13.480;2024-01-15T15:51:37;2.90;99.90
9311;DHT22;4694;52.464;13.480;2024-01-15T15:54:04;2.80;99.90
9311;DHT22;4694;52.464;13.480;2024-01-15T15:56:31;2.80;99.90
9311;DHT22;4694;52.464;13.480;2024-01-15T15:58:59;2.80;99.90
9311;DHT22;4694;52.464;13.480;2024-01-15T16:01:28;2.90;99.90
9311;DHT22;4694;52.464;13.480;2024-01-15T16:03:55;2.90;99.90
9311;DHT22;4694;52.464;13.480;2024-01-15T16:06:21;2.90;99.90